sensor_id;sensor_type;location;lat;lon;timestamp;P1;durP1;ratioP1;P2;durP2;ratioP2
295;SDS011;132;48.770;9.200;2024-02-21T00:13:18;6.10;;;3.13;;
295;SDS011;132;48.770;9.200;2024-02-21T00:27:46;11.70;;;3.60;;
295;SDS011;132;48.770;9.200;2024-02-21T00:46:08;16.87;;;4.47;;
295;SDS011;132;48.770;9.200;2024-02-21T00:59:16;14.35;;;4.32;;
295;SDS011;132;48.770;9.200;2024-02-21T01:12:22;13.50;;;3.70;;
295;SDS011;132;48.770;9.200;2024-02-21T01:47:28;17.10;;;4.00;;
295;SDS011;132;48.770;9.200;2024-02-21T01:50:09;10.18;;;4.10;;
295;SDS011;132;48.770;9.200;2024-02-21T02:03:18;13.33;;;4.10;;
295;SDS011;132;48.770;9.200;2024-02-21T02:05:58;16.73;;;4.55;;
295;SDS011;132;48.770;9.200;2024-02-21T02:08:38;14.15;;;4.22;;
295;SDS011;132;48.770;9.200;2024-02-21T02:11:21;14.73;;;4.05;;
295;SDS011;132;48.770;9.200;2024-02-21T02:14:03;10.82;;;3.60;;
295;SDS011;132;48.770;9.200;2024-02-21T02:16:45;16.33;;;4.07;;
295;SDS011;132;48.770;9.200;2024-02-21T02:19:25;16.73;;;4.10;;
295;SDS011;132;48.770;9.200;2024-02-21T02:22:13;10.93;;;3.90;;
295;SDS011;132;48.770;9.200;2024-02-21T02:25:06;14.70;;;3.92;;
295;SDS011;132;48.770;9.200;2024-02-21T02:40:50;10.17;;;4.10;;
295;SDS011;132;48.770;9.200;2024-02-21T02:43:40;17.27;;;4.32;;
295;SDS011;132;48.770;9.200;2024-02-21T02:46:20;12.27;;;4.05;;
295;SDS011;132;48.770;9.200;2024-02-21T02:49:09;10.73;;;3.83;;
295;SDS011;132;48.770;9.200;2024-02-21T02:51:56;11.02;;;4.18;;
295;SDS011;132;48.770;9.200;2024-02-21T02:54:37;12.73;;;4.00;;
295;SDS011;132;48.770;9.200;2024-02-21T02:57:23;13.88;;;4.45;;
295;SDS011;132;48.770;9.200;2024-02-21T03:10:31;9.00;;;4.30;;
295;SDS011;132;48.770;9.200;2024-02-21T03:23:39;10.93;;;3.80;;
295;SDS011;132;48.770;9.200;2024-02-21T03:36:52;13.10;;;4.13;;
295;SDS011;132;48.770;9.200;2024-02-21T03:50:02;11.57;;;4.00;;
295;SDS011;132;48.770;9.200;2024-02-21T03:52:50;8.88;;;3.67;;
295;SDS011;132;48.770;9.200;2024-02-21T04:05:57;17.30;;;4.33;;
295;SDS011;132;48.770;9.200;2024-02-21T04:19:04;14.60;;;4.20;;
295;SDS011;132;48.770;9.200;2024-02-21T04:32:12;14.83;;;3.70;;
295;SDS011;132;48.770;9.200;2024-02-21T04:45:19;9.03;;;3.30;;
295;SDS011;132;48.770;9.200;2024-02-21T04:58:25;8.83;;;3.80;;
295;SDS011;132;48.770;9.200;2024-02-21T05:01:18;10.18;;;4.05;;
295;SDS011;132;48.770;9.200;2024-02-21T05:14:26;15.70;;;4.17;;
295;SDS011;132;48.770;9.200;2024-02-21T05:17:21;12.15;;;3.47;;
295;SDS011;132;48.770;9.200;2024-02-21T05:30:30;8.00;;;3.35;;
295;SDS011;132;48.770;9.200;2024-02-21T05:43:38;9.80;;;3.33;;
295;SDS011;132;48.770;9.200;2024-02-21T05:56:45;10.57;;;3.72;;
295;SDS011;132;48.770;9.200;2024-02-21T05:59:26;9.63;;;3.20;;
295;SDS011;132;48.770;9.200;2024-02-21T06:12:31;6.57;;;3.03;;
295;SDS011;132;48.770;9.200;2024-02-21T06:15:23;8.00;;;3.00;;
295;SDS011;132;48.770;9.200;2024-02-21T06:28:33;10.38;;;3.50;;
295;SDS011;132;48.770;9.200;2024-02-21T06:31:23;8.82;;;3.25;;
295;SDS011;132;48.770;9.200;2024-02-21T06:34:10;8.93;;;3.30;;
295;SDS011;132;48.770;9.200;2024-02-21T06:47:17;7.87;;;3.50;;
295;SDS011;132;48.770;9.200;2024-02-21T07:00:28;11.20;;;3.63;;
295;SDS011;132;48.770;9.200;2024-02-21T07:13:32;12.23;;;3.80;;
295;SDS011;132;48.770;9.200;2024-02-21T07:26:41;8.63;;;3.10;;
295;SDS011;132;48.770;9.200;2024-02-21T07:29:36;13.05;;;3.50;;
295;SDS011;132;48.770;9.200;2024-02-21T07:42:44;10.00;;;3.80;;
295;SDS011;132;48.770;9.200;2024-02-21T07:45:29;9.45;;;3.45;;
295;SDS011;132;48.770;9.200;2024-02-21T07:48:12;11.80;;;3.80;;
295;SDS011;132;48.770;9.200;2024-02-21T08:01:21;9.35;;;3.70;;
295;SDS011;132;48.770;9.200;2024-02-21T08:04:02;6.80;;;2.90;;
295;SDS011;132;48.770;9.200;2024-02-21T08:06:52;8.18;;;3.58;;
295;SDS011;132;48.770;9.200;2024-02-21T08:09:33;8.50;;;3.27;;
295;SDS011;132;48.770;9.200;2024-02-21T08:12:12;13.40;;;3.65;;
295;SDS011;132;48.770;9.200;2024-02-21T08:18:07;6.32;;;2.90;;
295;SDS011;132;48.770;9.200;2024-02-21T08:21:13;13.05;;;4.05;;
295;SDS011;132;48.770;9.200;2024-02-21T08:23:59;8.52;;;3.60;;
295;SDS011;132;48.770;9.200;2024-02-21T08:37:08;9.10;;;3.77;;
295;SDS011;132;48.770;9.200;2024-02-21T08:39:50;15.20;;;4.45;;
295;SDS011;132;48.770;9.200;2024-02-21T08:52:58;9.48;;;3.90;;
295;SDS011;132;48.770;9.200;2024-02-21T08:55:40;4.95;;;3.20;;
295;SDS011;132;48.770;9.200;2024-02-21T09:08:48;10.07;;;4.20;;
295;SDS011;132;48.770;9.200;2024-02-21T09:21:52;10.40;;;4.47;;
295;SDS011;132;48.770;9.200;2024-02-21T09:25:00;8.60;;;4.50;;
295;SDS011;132;48.770;9.200;2024-02-21T09:27:55;9.20;;;4.57;;
295;SDS011;132;48.770;9.200;2024-02-21T09:30:49;10.90;;;4.93;;
295;SDS011;132;48.770;9.200;2024-02-21T09:33:41;10.93;;;9.00;;
295;SDS011;132;48.770;9.200;2024-02-21T09:36:20;30.67;;;29.17;;
295;SDS011;132;48.770;9.200;2024-02-21T09:39:03;12.30;;;11.30;;
295;SDS011;132;48.770;9.200;2024-02-21T09:41:50;104.60;;;99.57;;
295;SDS011;132;48.770;9.200;2024-02-21T09:45:07;220.07;;;209.57;;
295;SDS011;132;48.770;9.200;2024-02-21T09:51:15;336.00;;;319.93;;
295;SDS011;132;48.770;9.200;2024-02-21T09:54:07;225.43;;;214.63;;
295;SDS011;132;48.770;9.200;2024-02-21T09:56:47;319.50;;;304.23;;
295;SDS011;132;48.770;9.200;2024-02-21T09:59:30;403.93;;;384.63;;
295;SDS011;132;48.770;9.200;2024-02-21T10:02:14;699.53;;;666.17;;
295;SDS011;132;48.770;9.200;2024-02-21T10:05:12;246.83;;;235.03;;
295;SDS011;132;48.770;9.200;2024-02-21T10:07:56;585.63;;;557.70;;
295;SDS011;132;48.770;9.200;2024-02-21T10:10:42;613.20;;;583.93;;
295;SDS011;132;48.770;9.200;2024-02-21T10:13:25;236.20;;;224.90;;
295;SDS011;132;48.770;9.200;2024-02-21T10:16:09;51.87;;;49.37;;
295;SDS011;132;48.770;9.200;2024-02-21T10:18:53;148.60;;;141.50;;
295;SDS011;132;48.770;9.200;2024-02-21T10:21:35;261.83;;;249.33;;
295;SDS011;132;48.770;9.200;2024-02-21T10:24:29;375.30;;;357.40;;
295;SDS011;132;48.770;9.200;2024-02-21T10:27:08;339.17;;;322.97;;
295;SDS011;132;48.770;9.200;2024-02-21T10:29:49;237.50;;;226.10;;
295;SDS011;132;48.770;9.200;2024-02-21T10:32:55;174.37;;;166.00;;
295;SDS011;132;48.770;9.200;2024-02-21T10:35:34;265.10;;;252.40;;
295;SDS011;132;48.770;9.200;2024-02-21T10:38:19;364.67;;;347.27;;
295;SDS011;132;48.770;9.200;2024-02-21T10:41:10;173.00;;;164.70;;
295;SDS011;132;48.770;9.200;2024-02-21T10:43:53;64.43;;;61.33;;
295;SDS011;132;48.770;9.200;2024-02-21T10:46:34;126.70;;;120.60;;
295;SDS011;132;48.770;9.200;2024-02-21T10:49:39;84.03;;;79.97;;
295;SDS011;132;48.770;9.200;2024-02-21T10:55:26;24.07;;;22.87;;
295;SDS011;132;48.770;9.200;2024-02-21T10:58:27;9.97;;;8.60;;
295;SDS011;132;48.770;9.200;2024-02-21T11:01:12;13.30;;;8.87;;
295;SDS011;132;48.770;9.200;2024-02-21T11:04:01;10.33;;;7.77;;
295;SDS011;132;48.770;9.200;2024-02-21T11:06:43;10.00;;;8.20;;
295;SDS011;132;48.770;9.200;2024-02-21T11:09:31;9.23;;;8.73;;
295;SDS011;132;48.770;9.200;2024-02-21T11:12:19;15.53;;;14.73;;
295;SDS011;132;48.770;9.200;2024-02-21T11:15:07;15.73;;;14.93;;
295;SDS011;132;48.770;9.200;2024-02-21T11:17:55;15.20;;;14.40;;
295;SDS011;132;48.770;9.200;2024-02-21T11:20:34;20.23;;;19.23;;
295;SDS011;132;48.770;9.200;2024-02-21T11:23:24;20.33;;;19.33;;
295;SDS011;132;48.770;9.200;2024-02-21T11:26:09;18.50;;;17.60;;
295;SDS011;132;48.770;9.200;2024-02-21T11:29:00;21.90;;;20.80;;
295;SDS011;132;48.770;9.200;2024-02-21T11:31:41;29.67;;;28.20;;
295;SDS011;132;48.770;9.200;2024-02-21T11:34:22;33.43;;;31.80;;
295;SDS011;132;48.770;9.200;2024-02-21T11:37:03;24.87;;;23.67;;
295;SDS011;132;48.770;9.200;2024-02-21T11:39:55;15.93;;;15.13;;
295;SDS011;132;48.770;9.200;2024-02-21T11:42:37;12.80;;;12.13;;
295;SDS011;132;48.770;9.200;2024-02-21T11:45:27;11.40;;;10.80;;
295;SDS011;132;48.770;9.200;2024-02-21T11:48:09;12.17;;;11.57;;
295;SDS011;132;48.770;9.200;2024-02-21T11:50:52;10.10;;;9.60;;
295;SDS011;132;48.770;9.200;2024-02-21T11:53:34;7.93;;;6.93;;
295;SDS011;132;48.770;9.200;2024-02-21T11:56:16;8.73;;;5.50;;
295;SDS011;132;48.770;9.200;2024-02-21T11:58:58;5.03;;;3.20;;
295;SDS011;132;48.770;9.200;2024-02-21T12:01:38;6.87;;;3.23;;
295;SDS011;132;48.770;9.200;2024-02-21T12:04:18;7.97;;;2.70;;
295;SDS011;132;48.770;9.200;2024-02-21T12:06:57;5.63;;;3.13;;
295;SDS011;132;48.770;9.200;2024-02-21T12:09:36;4.47;;;3.30;;
295;SDS011;132;48.770;9.200;2024-02-21T12:12:13;4.20;;;3.20;;
295;SDS011;132;48.770;9.200;2024-02-21T12:14:56;7.97;;;4.80;;
295;SDS011;132;48.770;9.200;2024-02-21T12:17:39;7.37;;;5.80;;
295;SDS011;132;48.770;9.200;2024-02-21T12:20:20;8.50;;;5.67;;
295;SDS011;132;48.770;9.200;2024-02-21T12:23:02;6.73;;;6.40;;
295;SDS011;132;48.770;9.200;2024-02-21T12:25:43;9.17;;;7.30;;
295;SDS011;132;48.770;9.200;2024-02-21T12:28:22;8.33;;;7.90;;
295;SDS011;132;48.770;9.200;2024-02-21T12:30:59;12.20;;;11.60;;
295;SDS011;132;48.770;9.200;2024-02-21T12:33:37;13.30;;;12.60;;
295;SDS011;132;48.770;9.200;2024-02-21T12:36:17;17.77;;;16.87;;
295;SDS011;132;48.770;9.200;2024-02-21T12:38:54;15.90;;;15.10;;
295;SDS011;132;48.770;9.200;2024-02-21T12:41:33;16.40;;;9.30;;
295;SDS011;132;48.770;9.200;2024-02-21T12:44:13;8.43;;;7.97;;
295;SDS011;132;48.770;9.200;2024-02-21T12:46:53;10.60;;;8.03;;
295;SDS011;132;48.770;9.200;2024-02-21T12:49:33;7.67;;;7.27;;
295;SDS011;132;48.770;9.200;2024-02-21T12:52:15;6.27;;;5.93;;
295;SDS011;132;48.770;9.200;2024-02-21T12:54:54;6.03;;;5.73;;
295;SDS011;132;48.770;9.200;2024-02-21T12:57:36;9.60;;;5.00;;
295;SDS011;132;48.770;9.200;2024-02-21T13:00:19;5.17;;;4.07;;
295;SDS011;132;48.770;9.200;2024-02-21T13:02:59;5.10;;;3.60;;
295;SDS011;132;48.770;9.200;2024-02-21T13:05:39;6.10;;;3.97;;
295;SDS011;132;48.770;9.200;2024-02-21T13:08:19;4.60;;;4.13;;
295;SDS011;132;48.770;9.200;2024-02-21T13:10:59;5.47;;;4.13;;
295;SDS011;132;48.770;9.200;2024-02-21T13:13:37;4.43;;;3.90;;
295;SDS011;132;48.770;9.200;2024-02-21T13:16:28;4.27;;;3.60;;
295;SDS011;132;48.770;9.200;2024-02-21T13:19:07;5.13;;;3.20;;
295;SDS011;132;48.770;9.200;2024-02-21T13:21:49;8.87;;;3.50;;
295;SDS011;132;48.770;9.200;2024-02-21T13:24:31;5.87;;;4.07;;
295;SDS011;132;48.770;9.200;2024-02-21T13:27:11;5.87;;;3.57;;
295;SDS011;132;48.770;9.200;2024-02-21T13:29:53;5.33;;;3.03;;
295;SDS011;132;48.770;9.200;2024-02-21T13:32:32;4.33;;;2.90;;
295;SDS011;132;48.770;9.200;2024-02-21T13:35:12;4.50;;;2.70;;
295;SDS011;132;48.770;9.200;2024-02-21T13:38:08;5.90;;;2.67;;
295;SDS011;132;48.770;9.200;2024-02-21T13:40:51;2.80;;;2.10;;
295;SDS011;132;48.770;9.200;2024-02-21T13:43:35;3.53;;;2.30;;
295;SDS011;132;48.770;9.200;2024-02-21T13:46:17;3.27;;;2.30;;
295;SDS011;132;48.770;9.200;2024-02-21T13:49:21;3.57;;;2.30;;
295;SDS011;132;48.770;9.200;2024-02-21T13:52:11;4.20;;;2.27;;
295;SDS011;132;48.770;9.200;2024-02-21T13:54:52;5.90;;;2.40;;
295;SDS011;132;48.770;9.200;2024-02-21T13:57:44;3.67;;;2.20;;
295;SDS011;132;48.770;9.200;2024-02-21T14:00:26;2.87;;;2.00;;
295;SDS011;132;48.770;9.200;2024-02-21T14:03:07;4.23;;;2.30;;
295;SDS011;132;48.770;9.200;2024-02-21T14:05:45;3.43;;;2.10;;
295;SDS011;132;48.770;9.200;2024-02-21T14:08:29;3.13;;;2.07;;
295;SDS011;132;48.770;9.200;2024-02-21T14:11:08;3.77;;;2.27;;
295;SDS011;132;48.770;9.200;2024-02-21T14:13:47;5.60;;;2.00;;
295;SDS011;132;48.770;9.200;2024-02-21T14:16:27;4.37;;;2.33;;
295;SDS011;132;48.770;9.200;2024-02-21T14:19:09;4.37;;;2.30;;
295;SDS011;132;48.770;9.200;2024-02-21T14:32:30;3.17;;;2.10;;
295;SDS011;132;48.770;9.200;2024-02-21T14:35:15;6.13;;;2.00;;
295;SDS011;132;48.770;9.200;2024-02-21T14:37:57;3.23;;;2.10;;
295;SDS011;132;48.770;9.200;2024-02-21T14:40:36;6.20;;;2.00;;
295;SDS011;132;48.770;9.200;2024-02-21T14:53:43;3.50;;;2.00;;
295;SDS011;132;48.770;9.200;2024-02-21T14:56:24;3.93;;;2.10;;
295;SDS011;132;48.770;9.200;2024-02-21T15:09:44;6.70;;;2.27;;
295;SDS011;132;48.770;9.200;2024-02-21T15:12:20;2.80;;;1.93;;
295;SDS011;132;48.770;9.200;2024-02-21T15:15:15;3.87;;;2.23;;
295;SDS011;132;48.770;9.200;2024-02-21T15:28:23;5.00;;;2.70;;
295;SDS011;132;48.770;9.200;2024-02-21T15:31:04;10.73;;;2.37;;
295;SDS011;132;48.770;9.200;2024-02-21T15:33:42;6.07;;;2.40;;
295;SDS011;132;48.770;9.200;2024-02-21T15:36:36;3.83;;;2.20;;
295;SDS011;132;48.770;9.200;2024-02-21T15:39:20;4.63;;;2.10;;
295;SDS011;132;48.770;9.200;2024-02-21T15:42:15;8.10;;;2.30;;
295;SDS011;132;48.770;9.200;2024-02-21T15:56:01;3.90;;;2.20;;
295;SDS011;132;48.770;9.200;2024-02-21T16:09:12;2.73;;;2.20;;
295;SDS011;132;48.770;9.200;2024-02-21T16:11:59;3.40;;;2.30;;
295;SDS011;132;48.770;9.200;2024-02-21T16:14:48;4.47;;;2.20;;
295;SDS011;132;48.770;9.200;2024-02-21T16:17:40;3.53;;;2.33;;
295;SDS011;132;48.770;9.200;2024-02-21T16:30:48;6.55;;;2.58;;
295;SDS011;132;48.770;9.200;2024-02-21T16:43:56;13.03;;;3.30;;
295;SDS011;132;48.770;9.200;2024-02-21T16:46:38;10.83;;;3.33;;
295;SDS011;132;48.770;9.200;2024-02-21T16:59:45;8.90;;;2.87;;
295;SDS011;132;48.770;9.200;2024-02-21T17:12:51;5.37;;;2.70;;
295;SDS011;132;48.770;9.200;2024-02-21T17:25:59;4.97;;;2.67;;
295;SDS011;132;48.770;9.200;2024-02-21T17:28:47;5.63;;;3.20;;
295;SDS011;132;48.770;9.200;2024-02-21T17:31:26;6.73;;;3.10;;
295;SDS011;132;48.770;9.200;2024-02-21T17:34:20;6.20;;;3.07;;
295;SDS011;132;48.770;9.200;2024-02-21T17:37:01;5.77;;;2.83;;
295;SDS011;132;48.770;9.200;2024-02-21T17:39:54;7.50;;;3.30;;
295;SDS011;132;48.770;9.200;2024-02-21T17:42:39;7.70;;;3.10;;
295;SDS011;132;48.770;9.200;2024-02-21T17:45:17;5.27;;;3.20;;
295;SDS011;132;48.770;9.200;2024-02-21T17:47:57;10.30;;;2.90;;
295;SDS011;132;48.770;9.200;2024-02-21T17:50:35;8.13;;;3.30;;
295;SDS011;132;48.770;9.200;2024-02-21T17:53:18;13.43;;;3.30;;
295;SDS011;132;48.770;9.200;2024-02-21T17:56:05;6.50;;;3.20;;
295;SDS011;132;48.770;9.200;2024-02-21T17:58:44;8.73;;;3.90;;
295;SDS011;132;48.770;9.200;2024-02-21T18:01:27;7.07;;;2.97;;
295;SDS011;132;48.770;9.200;2024-02-21T18:04:07;6.20;;;3.10;;
295;SDS011;132;48.770;9.200;2024-02-21T18:06:46;7.80;;;2.90;;
295;SDS011;132;48.770;9.200;2024-02-21T18:09:25;6.90;;;3.10;;
295;SDS011;132;48.770;9.200;2024-02-21T18:12:18;5.50;;;2.70;;
295;SDS011;132;48.770;9.200;2024-02-21T18:15:05;22.73;;;3.17;;
295;SDS011;132;48.770;9.200;2024-02-21T18:17:47;7.63;;;2.80;;
295;SDS011;132;48.770;9.200;2024-02-21T18:20:32;5.67;;;3.20;;
295;SDS011;132;48.770;9.200;2024-02-21T18:23:30;5.83;;;3.03;;
295;SDS011;132;48.770;9.200;2024-02-21T18:26:09;5.70;;;2.80;;
295;SDS011;132;48.770;9.200;2024-02-21T18:28:49;4.40;;;2.60;;
295;SDS011;132;48.770;9.200;2024-02-21T18:31:29;11.20;;;3.47;;
295;SDS011;132;48.770;9.200;2024-02-21T18:34:17;10.83;;;2.90;;
295;SDS011;132;48.770;9.200;2024-02-21T18:36:58;4.70;;;2.60;;
295;SDS011;132;48.770;9.200;2024-02-21T18:39:39;9.20;;;2.30;;
295;SDS011;132;48.770;9.200;2024-02-21T18:42:22;4.63;;;3.03;;
295;SDS011;132;48.770;9.200;2024-02-21T18:45:14;9.20;;;2.70;;
295;SDS011;132;48.770;9.200;2024-02-21T18:47:54;4.33;;;2.40;;
295;SDS011;132;48.770;9.200;2024-02-21T18:50:38;3.70;;;2.23;;
295;SDS011;132;48.770;9.200;2024-02-21T18:53:26;4.60;;;2.53;;
295;SDS011;132;48.770;9.200;2024-02-21T18:56:12;3.30;;;2.33;;
295;SDS011;132;48.770;9.200;2024-02-21T18:58:54;4.53;;;2.50;;
295;SDS011;132;48.770;9.200;2024-02-21T19:01:37;3.50;;;2.70;;
295;SDS011;132;48.770;9.200;2024-02-21T19:04:24;5.23;;;2.70;;
295;SDS011;132;48.770;9.200;2024-02-21T19:17:44;5.33;;;2.70;;
295;SDS011;132;48.770;9.200;2024-02-21T19:20:43;10.43;;;2.50;;
295;SDS011;132;48.770;9.200;2024-02-21T19:23:30;3.57;;;2.60;;
295;SDS011;132;48.770;9.200;2024-02-21T19:26:12;5.20;;;2.33;;
295;SDS011;132;48.770;9.200;2024-02-21T19:28:52;5.97;;;2.70;;
295;SDS011;132;48.770;9.200;2024-02-21T19:41:54;6.90;;;2.53;;
295;SDS011;132;48.770;9.200;2024-02-21T19:44:34;4.83;;;2.83;;
295;SDS011;132;48.770;9.200;2024-02-21T19:47:15;4.80;;;2.63;;
295;SDS011;132;48.770;9.200;2024-02-21T19:50:01;9.13;;;2.50;;
295;SDS011;132;48.770;9.200;2024-02-21T19:52:42;3.73;;;2.60;;
295;SDS011;132;48.770;9.200;2024-02-21T19:55:34;3.30;;;2.40;;
295;SDS011;132;48.770;9.200;2024-02-21T19:58:20;11.43;;;2.80;;
295;SDS011;132;48.770;9.200;2024-02-21T20:01:02;2.73;;;2.30;;
295;SDS011;132;48.770;9.200;2024-02-21T20:03:44;3.90;;;2.40;;
295;SDS011;132;48.770;9.200;2024-02-21T20:06:23;4.83;;;2.57;;
295;SDS011;132;48.770;9.200;2024-02-21T20:09:03;7.27;;;2.60;;
295;SDS011;132;48.770;9.200;2024-02-21T20:12:01;8.73;;;2.77;;
295;SDS011;132;48.770;9.200;2024-02-21T20:25:04;5.40;;;2.83;;
295;SDS011;132;48.770;9.200;2024-02-21T20:27:42;4.17;;;2.83;;
295;SDS011;132;48.770;9.200;2024-02-21T20:30:22;5.23;;;2.63;;
295;SDS011;132;48.770;9.200;2024-02-21T20:33:07;3.87;;;2.40;;
295;SDS011;132;48.770;9.200;2024-02-21T20:46:14;4.23;;;2.80;;
295;SDS011;132;48.770;9.200;2024-02-21T20:48:59;3.80;;;2.67;;
295;SDS011;132;48.770;9.200;2024-02-21T20:51:38;6.23;;;3.70;;
295;SDS011;132;48.770;9.200;2024-02-21T20:54:22;5.70;;;2.90;;
295;SDS011;132;48.770;9.200;2024-02-21T20:57:00;6.97;;;3.60;;
295;SDS011;132;48.770;9.200;2024-02-21T20:59:50;5.43;;;3.20;;
295;SDS011;132;48.770;9.200;2024-02-21T21:02:41;5.93;;;2.70;;
295;SDS011;132;48.770;9.200;2024-02-21T21:05:29;5.90;;;3.20;;
295;SDS011;132;48.770;9.200;2024-02-21T21:18:32;7.03;;;2.87;;
295;SDS011;132;48.770;9.200;2024-02-21T21:21:22;4.20;;;2.37;;
295;SDS011;132;48.770;9.200;2024-02-21T21:24:03;4.50;;;2.53;;
295;SDS011;132;48.770;9.200;2024-02-21T21:48:05;5.03;;;2.20;;
295;SDS011;132;48.770;9.200;2024-02-21T22:11:54;2.27;;;1.80;;
295;SDS011;132;48.770;9.200;2024-02-21T22:24:57;1.70;;;1.70;;
295;SDS011;132;48.770;9.200;2024-02-21T22:27:35;1.60;;;1.40;;
295;SDS011;132;48.770;9.200;2024-02-21T22:30:19;2.70;;;1.90;;
295;SDS011;132;48.770;9.200;2024-02-21T22:32:58;2.77;;;1.60;;
295;SDS011;132;48.770;9.200;2024-02-21T22:35:52;1.97;;;1.63;;
295;SDS011;132;48.770;9.200;2024-02-21T22:49:01;1.60;;;1.50;;
295;SDS011;132;48.770;9.200;2024-02-21T22:51:50;3.40;;;1.93;;
295;SDS011;132;48.770;9.200;2024-02-21T23:05:15;3.30;;;1.70;;
295;SDS011;132;48.770;9.200;2024-02-21T23:07:58;2.00;;;1.80;;
295;SDS011;132;48.770;9.200;2024-02-21T23:10:39;1.97;;;1.67;;
295;SDS011;132;48.770;9.200;2024-02-21T23:13:23;2.87;;;1.90;;
295;SDS011;132;48.770;9.200;2024-02-21T23:16:06;4.50;;;2.10;;
295;SDS011;132;48.770;9.200;2024-02-21T23:18:54;3.60;;;2.00;;
295;SDS011;132;48.770;9.200;2024-02-21T23:21:39;2.30;;;1.93;;
295;SDS011;132;48.770;9.200;2024-02-21T23:24:26;3.80;;;2.10;;
295;SDS011;132;48.770;9.200;2024-02-21T23:27:14;2.50;;;2.03;;
295;SDS011;132;48.770;9.200;2024-02-21T23:29:59;2.67;;;2.10;;
295;SDS011;132;48.770;9.200;2024-02-21T23:32:39;5.47;;;2.30;;
295;SDS011;132;48.770;9.200;2024-02-21T23:35:29;2.57;;;2.20;;
295;SDS011;132;48.770;9.200;2024-02-21T23:38:21;3.20;;;2.53;;
295;SDS011;132;48.770;9.200;2024-02-21T23:51:45;3.37;;;2.50;;
295;SDS011;132;48.770;9.200;2024-02-21T23:54:43;5.40;;;2.40;;
295;SDS011;132;48.770;9.200;2024-02-21T23:57:41;4.90;;;2.23;;
